Airfield :
LOGIN :

Register | Disclaimer

   EN    FR    IT 

 










Legend :    VFR   Marginal VFR   IFR   Intensive IFR   Very Intensive IFR
Visi :
Ceiling :
>= 8 km
>= 3000ft
5 to 8 km
1000 to 3000 ft
1500m to 5 km
500 to 1000 ft
800 to 1500m
200 to 500 ft
< 800m
< 200 ft
Symbols :   Thunderstorms  Fog  Heavy snow  Heavy precipitations  Wind > 20 kt
SIGMETs :     Misc.  Thunderstorms  Icing  Turbulence  Mountain Waves  Volcanic Ashes






- Airport Elevation : 160 ft
- IATA code : LRT


LFRH - Lorient Lann Bihoue

CURRENT METAR :
  • 282230Z AUTO 27010KT 230V290 9999 FEW020/// SCT072/// BKN100/// ///TCU 08/06 Q1012 BECMG SHRA

EXPIRED METARs :
  • 282200Z AUTO 26011KT CAVOK 08/06 Q1012 BECMG SHRA SCT030TCU
  • 282130Z AUTO 26009KT 9999 FEW040 BKN086 07/05 Q1012 BECMG SHRA SCT030TCU
  • 282100Z AUTO 29011KT 9999 -RADZ BKN048/// BKN058/// BKN070/// ///TCU 08/06 Q1012 BECMG SHRA SCT030CB BKN040 BKN050
  • 282030Z AUTO 29013KT 9999 -RA FEW019/// BKN036/// BKN045/// ///TCU 08/06 Q1012 BECMG SHRA SCT030CB BKN040 BKN050
  • 282000Z AUTO 27011KT 9999 BKN026/// BKN036/// BKN042/// ///TCU 08/06 Q1012 TEMPO 27015G30KT BECMG SHRA SCT030CB BKN040 BKN050
  • 281930Z AUTO 28011KT 9999 BKN029 BKN036 BKN042 08/06 Q1011 TEMPO 27015G30KT BECMG SHRA SCT030CB BKN040 BKN050

TAF TAF LFRH
Valid from the 28 at 18:00 until the 29 at 18:00 UTC


281700Z 2818/2918 27015G30KT 9999 SHRA SCT030CB BKN040 BKN050
BECMG 2821/2823 27010G20KT
BECMG 2823/2901 SHRA SCT030TCU
BECMG 2903/2905 27005KT NSW SCT014
BECMG 2914/2916 18010KT
BECMG 2916/2918 4000 RADZ BKN009 OVC015



MET'MAP, your aeronautical weather chart ! - Copyright ORBIFLY December 2007 - Disclaimer

ORBIFLY MET'MAP TEAM :

Programming & Development : Alexandra Zaïnal
Concept & original design : Baudouin d'Aumeries
Assistance for programming : Marc-Olivier Méhu
Technical & hardware support : Manuel Goepfert

Contact : metmap@orbifly.com




SOURCES & CREDITS :

   NOAA